createdAt,value
2023-01-31T00:00:37.498Z,6.00
2023-01-31T00:03:07.149Z,5.90
2023-01-31T00:05:35.117Z,5.90
2023-01-31T00:08:03.071Z,5.90
2023-01-31T00:10:31.080Z,5.90
2023-01-31T00:12:59.089Z,5.80
2023-01-31T00:15:27.189Z,5.80
2023-01-31T00:17:56.152Z,5.80
2023-01-31T00:20:25.556Z,5.80
2023-01-31T00:22:53.579Z,5.80
2023-01-31T00:25:21.761Z,5.80
2023-01-31T00:27:49.863Z,5.80
2023-01-31T00:30:18.500Z,5.70
2023-01-31T00:32:46.884Z,5.70
2023-01-31T00:35:14.939Z,5.70
2023-01-31T00:37:44.284Z,5.70
2023-01-31T00:40:13.076Z,5.70
2023-01-31T00:42:41.452Z,5.70
2023-01-31T00:45:10.207Z,5.70
2023-01-31T00:47:38.186Z,5.60
2023-01-31T00:50:06.953Z,5.60
2023-01-31T00:52:35.342Z,5.70
2023-01-31T00:55:05.793Z,5.70
2023-01-31T00:57:34.004Z,5.70
2023-01-31T01:00:02.456Z,5.80
2023-01-31T01:02:30.500Z,5.80
2023-01-31T01:04:58.538Z,5.90
2023-01-31T01:07:26.635Z,5.90
2023-01-31T01:09:54.589Z,5.90
2023-01-31T01:12:23.945Z,5.90
2023-01-31T01:14:51.896Z,6.00
2023-01-31T01:17:19.944Z,6.00
2023-01-31T01:19:48.008Z,6.00
2023-01-31T01:22:16.318Z,6.00
2023-01-31T01:24:44.703Z,6.00
2023-01-31T01:27:13.751Z,6.00
2023-01-31T01:29:43.073Z,6.00
2023-01-31T01:32:11.119Z,6.00
2023-01-31T01:34:39.090Z,6.00
2023-01-31T01:37:11.758Z,6.00
2023-01-31T01:39:39.968Z,6.10
2023-01-31T01:42:08.940Z,6.10
2023-01-31T01:44:48.628Z,6.10
2023-01-31T01:47:22.138Z,6.10
2023-01-31T01:49:55.122Z,6.10
2023-01-31T01:52:24.388Z,6.10
2023-01-31T01:54:54.865Z,6.10
2023-01-31T01:57:30.515Z,6.00
2023-01-31T02:00:07.646Z,6.00
2023-01-31T02:02:36.140Z,6.00
2023-01-31T02:05:04.948Z,6.00
2023-01-31T02:07:33.128Z,6.00
2023-01-31T02:10:05.851Z,6.00
2023-01-31T02:12:35.990Z,6.10
2023-01-31T02:15:06.699Z,6.10
2023-01-31T02:17:34.726Z,6.10
2023-01-31T02:20:14.956Z,6.10
2023-01-31T02:22:53.806Z,6.20
2023-01-31T02:25:49.887Z,6.10
2023-01-31T02:28:58.459Z,6.10
2023-01-31T02:31:57.484Z,6.10
2023-01-31T02:34:35.894Z,6.10
2023-01-31T02:37:14.759Z,6.10
2023-01-31T02:39:52.064Z,6.10
2023-01-31T02:42:29.656Z,6.10
2023-01-31T02:45:06.669Z,6.10
2023-01-31T02:48:00.630Z,6.10
2023-01-31T02:50:33.080Z,6.10
2023-01-31T02:53:07.520Z,6.10
2023-01-31T02:55:57.037Z,6.20
2023-01-31T02:58:29.073Z,6.20
2023-01-31T03:00:58.706Z,6.10
2023-01-31T03:03:31.125Z,6.10
2023-01-31T03:06:35.746Z,6.00
2023-01-31T03:09:09.640Z,6.00
2023-01-31T03:11:47.534Z,5.90
2023-01-31T03:14:27.276Z,5.80
2023-01-31T03:17:19.995Z,5.70
2023-01-31T03:19:51.980Z,5.60
2023-01-31T03:22:26.316Z,5.60
2023-01-31T03:24:56.325Z,5.50
2023-01-31T03:27:24.869Z,5.50
2023-01-31T03:29:54.640Z,5.50
2023-01-31T03:32:30.400Z,5.40
2023-01-31T03:34:58.772Z,5.40
2023-01-31T03:37:35.054Z,5.40
2023-01-31T03:40:10.373Z,5.30
2023-01-31T03:42:45.369Z,5.30
2023-01-31T03:45:19.344Z,5.30
2023-01-31T03:47:50.064Z,5.30
2023-01-31T03:50:22.411Z,5.20
2023-01-31T03:52:56.475Z,5.20
2023-01-31T03:55:30.992Z,5.20
2023-01-31T03:58:02.564Z,5.20
2023-01-31T04:00:30.808Z,5.20
2023-01-31T04:03:05.527Z,5.20
2023-01-31T04:05:34.132Z,5.10
2023-01-31T04:08:02.292Z,5.10
2023-01-31T04:10:32.261Z,5.10
2023-01-31T04:13:01.477Z,5.10
2023-01-31T04:15:29.464Z,5.10
2023-01-31T04:17:57.482Z,5.10
2023-01-31T04:20:26.374Z,5.10
2023-01-31T04:22:55.457Z,5.10
2023-01-31T04:25:23.715Z,5.00
2023-01-31T04:27:53.445Z,5.10
2023-01-31T04:30:21.611Z,5.10
2023-01-31T04:32:49.743Z,5.10
2023-01-31T04:35:18.514Z,5.10
2023-01-31T04:37:46.956Z,5.10
2023-01-31T04:40:16.084Z,5.00
2023-01-31T04:42:44.111Z,5.00
2023-01-31T04:45:14.386Z,5.10
2023-01-31T04:47:42.301Z,5.00
2023-01-31T04:50:11.501Z,5.00
2023-01-31T04:52:39.543Z,5.00
2023-01-31T04:55:08.427Z,5.00
2023-01-31T04:57:36.430Z,5.00
2023-01-31T05:00:04.767Z,5.00
2023-01-31T05:02:34.240Z,5.00
2023-01-31T05:05:02.868Z,5.00
2023-01-31T05:07:31.432Z,5.00
2023-01-31T05:09:59.662Z,5.00
2023-01-31T05:12:28.478Z,5.00
2023-01-31T05:14:56.449Z,5.00
2023-01-31T05:17:29.468Z,5.00
2023-01-31T05:19:58.861Z,5.00
2023-01-31T05:22:27.020Z,5.00
2023-01-31T05:24:56.814Z,5.00
2023-01-31T05:27:26.848Z,5.00
2023-01-31T05:29:55.145Z,5.00
2023-01-31T05:32:23.309Z,5.10
2023-01-31T05:34:51.270Z,5.10
2023-01-31T05:37:20.708Z,5.10
2023-01-31T05:39:48.674Z,5.10
2023-01-31T05:42:16.602Z,5.10
2023-01-31T05:44:44.538Z,5.10
2023-01-31T05:47:12.474Z,5.20
2023-01-31T05:49:40.635Z,5.20
2023-01-31T05:52:08.818Z,5.20
2023-01-31T05:54:38.143Z,5.30
2023-01-31T05:57:06.485Z,5.30
2023-01-31T05:59:34.467Z,5.40
2023-01-31T06:02:02.494Z,5.50
2023-01-31T06:04:30.851Z,5.50
2023-01-31T06:06:59.159Z,5.60
2023-01-31T06:09:27.302Z,5.60
2023-01-31T06:11:56.748Z,5.60
2023-01-31T06:14:24.795Z,5.60
2023-01-31T06:16:52.823Z,5.70
2023-01-31T06:19:25.181Z,5.70
2023-01-31T06:21:53.121Z,5.80
2023-01-31T06:24:21.158Z,5.80
2023-01-31T06:26:49.126Z,5.80
2023-01-31T06:29:18.600Z,5.90
2023-01-31T06:31:46.627Z,5.90
2023-01-31T06:34:14.748Z,5.90
2023-01-31T06:36:42.735Z,6.00
2023-01-31T06:39:12.113Z,6.00
2023-01-31T06:41:40.211Z,6.00
2023-01-31T06:44:08.372Z,6.00
2023-01-31T06:46:37.711Z,6.00
2023-01-31T06:49:05.901Z,6.00
2023-01-31T06:51:33.866Z,6.00
2023-01-31T06:54:01.899Z,6.00
2023-01-31T06:56:30.412Z,6.10
2023-01-31T06:58:58.443Z,6.10
2023-01-31T07:01:26.753Z,6.10
2023-01-31T07:03:56.621Z,6.10
2023-01-31T07:06:24.661Z,6.20
2023-01-31T07:08:53.183Z,6.20
2023-01-31T07:11:21.234Z,6.20
2023-01-31T07:13:50.383Z,6.20
2023-01-31T07:16:19.816Z,6.30
2023-01-31T07:18:47.814Z,6.20
2023-01-31T07:21:17.220Z,6.30
2023-01-31T07:23:45.582Z,6.30
2023-01-31T07:26:13.528Z,6.30
2023-01-31T07:28:41.641Z,6.40
2023-01-31T07:31:13.127Z,6.40
2023-01-31T07:33:41.716Z,6.40
2023-01-31T07:36:12.885Z,6.40
2023-01-31T07:38:42.623Z,6.50
2023-01-31T07:41:12.257Z,6.50
2023-01-31T07:43:40.481Z,6.50
2023-01-31T07:46:11.324Z,6.50
2023-01-31T07:48:39.747Z,6.60
2023-01-31T07:51:08.308Z,6.60
2023-01-31T07:53:42.406Z,6.70
2023-01-31T07:56:14.568Z,6.70
2023-01-31T07:58:44.044Z,6.70
2023-01-31T08:01:32.873Z,6.70
2023-01-31T08:04:14.334Z,6.70
2023-01-31T08:06:48.245Z,6.80
2023-01-31T08:09:16.356Z,6.80
2023-01-31T08:11:47.613Z,6.80
2023-01-31T08:14:15.801Z,6.80
2023-01-31T08:16:44.357Z,6.80
2023-01-31T08:19:12.572Z,6.80
2023-01-31T08:21:40.616Z,6.80
2023-01-31T08:24:09.478Z,6.80
2023-01-31T08:26:37.535Z,6.90
2023-01-31T08:29:07.081Z,6.90
2023-01-31T08:31:35.397Z,7.00
2023-01-31T08:34:03.489Z,6.90
2023-01-31T08:36:32.938Z,7.00
2023-01-31T08:39:01.314Z,7.00
2023-01-31T08:41:30.620Z,7.00
2023-01-31T08:44:00.219Z,7.00
2023-01-31T08:46:32.902Z,7.10
2023-01-31T08:49:01.578Z,7.10
2023-01-31T08:51:30.296Z,7.10
2023-01-31T08:53:58.697Z,7.10
2023-01-31T08:56:27.875Z,7.20
2023-01-31T08:58:56.713Z,7.20
2023-01-31T09:01:24.778Z,7.20
2023-01-31T09:03:57.100Z,7.20
2023-01-31T09:06:27.416Z,7.30
2023-01-31T09:08:57.233Z,7.30
2023-01-31T09:11:25.257Z,7.30
2023-01-31T09:13:53.375Z,7.40
2023-01-31T09:16:22.135Z,7.40
2023-01-31T09:18:50.205Z,7.40
2023-01-31T09:21:21.265Z,7.50
2023-01-31T09:23:59.523Z,7.50
2023-01-31T09:26:27.729Z,7.50
2023-01-31T09:28:56.289Z,7.60
2023-01-31T09:31:24.473Z,7.60
2023-01-31T09:33:54.327Z,7.70
2023-01-31T09:36:26.042Z,7.70
2023-01-31T09:38:56.839Z,7.70
2023-01-31T09:41:29.824Z,7.80
2023-01-31T09:44:02.706Z,7.80
2023-01-31T09:46:37.280Z,7.80
2023-01-31T09:49:09.810Z,7.80
2023-01-31T09:51:40.635Z,7.90
2023-01-31T09:54:19.324Z,7.90
2023-01-31T09:56:55.578Z,8.00
2023-01-31T09:59:26.868Z,8.10
2023-01-31T10:02:00.087Z,8.20
2023-01-31T10:04:43.465Z,8.30
2023-01-31T10:07:19.026Z,8.40
2023-01-31T10:09:53.115Z,8.50
2023-01-31T10:12:25.143Z,8.60
2023-01-31T10:14:56.739Z,8.60
2023-01-31T10:17:29.180Z,8.60
2023-01-31T10:20:00.593Z,8.70
2023-01-31T10:22:37.117Z,8.70
2023-01-31T10:25:19.663Z,8.70
2023-01-31T10:27:51.248Z,8.80
2023-01-31T10:30:25.564Z,8.70
2023-01-31T10:33:00.218Z,8.70
2023-01-31T10:35:32.560Z,8.60
2023-01-31T10:38:08.726Z,8.60
2023-01-31T10:40:49.842Z,8.60
2023-01-31T10:43:22.721Z,8.60
2023-01-31T10:45:50.736Z,8.60
2023-01-31T10:48:21.935Z,8.50
2023-01-31T10:51:03.625Z,8.60
2023-01-31T10:53:49.624Z,8.60
2023-01-31T10:56:22.191Z,8.70
2023-01-31T10:58:51.891Z,8.80
2023-01-31T11:01:20.149Z,8.90
2023-01-31T11:03:51.645Z,9.00
2023-01-31T11:06:20.134Z,9.10
2023-01-31T11:08:51.539Z,9.10
2023-01-31T11:11:21.902Z,9.30
2023-01-31T11:14:02.392Z,9.40
2023-01-31T11:16:35.495Z,9.40
2023-01-31T11:19:06.954Z,9.40
2023-01-31T11:21:38.042Z,9.40
2023-01-31T11:24:17.129Z,9.30
2023-01-31T11:26:53.712Z,9.20
2023-01-31T11:29:26.249Z,9.20
2023-01-31T11:31:55.333Z,9.10
2023-01-31T11:34:25.731Z,9.10
2023-01-31T11:36:54.213Z,9.20
2023-01-31T11:39:29.751Z,9.20
2023-01-31T11:41:57.901Z,9.20
2023-01-31T11:44:26.168Z,9.20
2023-01-31T11:46:57.517Z,9.30
2023-01-31T11:49:31.756Z,9.30
2023-01-31T11:52:01.475Z,9.30
2023-01-31T11:54:34.900Z,9.20
2023-01-31T11:57:03.961Z,9.20
2023-01-31T11:59:32.685Z,9.20
2023-01-31T12:02:02.513Z,9.20
2023-01-31T12:04:41.000Z,9.10
2023-01-31T12:07:24.274Z,9.10
2023-01-31T12:09:53.726Z,9.10
2023-01-31T12:12:33.843Z,9.10
2023-01-31T12:15:03.583Z,9.10
2023-01-31T12:17:45.357Z,9.00
2023-01-31T12:20:28.563Z,8.90
2023-01-31T12:23:06.450Z,9.00
2023-01-31T12:25:49.354Z,9.00
2023-01-31T12:28:31.263Z,8.90
2023-01-31T12:31:20.602Z,9.00
2023-01-31T12:34:00.844Z,9.00
2023-01-31T12:36:42.391Z,9.00
2023-01-31T12:39:33.692Z,8.90
2023-01-31T12:42:19.120Z,8.90
2023-01-31T12:44:52.765Z,8.90
2023-01-31T12:47:45.752Z,8.90
2023-01-31T12:50:30.440Z,8.90
2023-01-31T12:53:23.041Z,8.80
2023-01-31T12:56:04.808Z,8.80
2023-01-31T12:58:45.945Z,8.70
2023-01-31T13:01:18.915Z,8.70
2023-01-31T13:04:01.665Z,8.60
2023-01-31T13:06:34.265Z,8.60
2023-01-31T13:09:08.974Z,8.50
2023-01-31T13:11:43.676Z,8.50
2023-01-31T13:14:19.854Z,8.50
2023-01-31T13:16:53.472Z,8.50
2023-01-31T13:19:26.621Z,8.50
2023-01-31T13:21:59.195Z,8.50
2023-01-31T13:24:35.283Z,8.50
2023-01-31T13:27:07.445Z,8.50
2023-01-31T13:29:42.168Z,8.50
2023-01-31T13:32:15.486Z,8.50
2023-01-31T13:34:52.085Z,8.50
2023-01-31T13:37:21.503Z,8.50
2023-01-31T13:39:53.825Z,8.50
2023-01-31T13:42:21.876Z,8.50
2023-01-31T13:44:53.973Z,8.40
2023-01-31T13:47:27.470Z,8.40
2023-01-31T13:50:03.604Z,8.40
2023-01-31T13:52:35.254Z,8.40
2023-01-31T13:55:13.632Z,8.40
2023-01-31T13:57:47.063Z,8.40
2023-01-31T14:00:35.758Z,8.40
2023-01-31T14:03:05.333Z,8.40
2023-01-31T14:05:54.137Z,8.40
2023-01-31T14:08:59.633Z,8.40
2023-01-31T14:11:36.836Z,8.40
2023-01-31T14:14:29.910Z,8.40
2023-01-31T14:16:59.542Z,8.40
2023-01-31T14:20:03.306Z,8.30
2023-01-31T14:22:35.019Z,8.30
2023-01-31T14:25:05.487Z,8.20
2023-01-31T14:27:40.634Z,8.20
2023-01-31T14:30:26.004Z,8.30
2023-01-31T14:33:08.946Z,8.30
2023-01-31T14:36:08.664Z,8.30
2023-01-31T14:38:48.172Z,8.30
2023-01-31T14:41:25.949Z,8.30
2023-01-31T14:44:07.355Z,8.30
2023-01-31T14:47:25.913Z,8.30
2023-01-31T14:50:27.465Z,8.30
2023-01-31T14:53:13.004Z,8.30
2023-01-31T14:55:59.553Z,8.20
2023-01-31T14:58:31.318Z,8.20
2023-01-31T15:01:03.284Z,8.20
2023-01-31T15:03:35.773Z,8.20
2023-01-31T15:06:14.980Z,8.20
2023-01-31T15:08:46.419Z,8.20
2023-01-31T15:11:41.556Z,8.20
2023-01-31T15:14:36.043Z,8.20
2023-01-31T15:17:23.700Z,8.20
2023-01-31T15:20:07.596Z,8.10
2023-01-31T15:22:42.583Z,8.10
2023-01-31T15:25:24.197Z,8.10
2023-01-31T15:27:54.116Z,8.10
2023-01-31T15:30:23.642Z,8.10
2023-01-31T15:32:56.648Z,8.20
2023-01-31T15:35:29.315Z,8.20
2023-01-31T15:38:04.943Z,8.10
2023-01-31T15:40:33.427Z,8.20
2023-01-31T15:43:18.454Z,8.20
2023-01-31T15:45:51.343Z,8.20
2023-01-31T15:48:21.482Z,8.20
2023-01-31T15:50:52.045Z,8.20
2023-01-31T15:53:24.932Z,8.20
2023-01-31T15:55:58.403Z,8.20
2023-01-31T15:58:29.030Z,8.20
2023-01-31T16:00:59.124Z,8.20
2023-01-31T16:03:29.412Z,8.20
2023-01-31T16:05:59.531Z,8.20
2023-01-31T16:08:33.789Z,8.20
2023-01-31T16:11:04.748Z,8.20
2023-01-31T16:13:35.450Z,8.30
2023-01-31T16:16:04.750Z,8.30
2023-01-31T16:18:33.713Z,8.30
2023-01-31T16:21:15.360Z,8.30
2023-01-31T16:23:45.731Z,8.30
2023-01-31T16:26:17.779Z,8.30
2023-01-31T16:28:50.469Z,8.30
2023-01-31T16:31:21.743Z,8.30
2023-01-31T16:33:52.865Z,8.20
2023-01-31T16:36:24.907Z,8.20
2023-01-31T16:39:00.132Z,8.30
2023-01-31T16:41:42.546Z,8.30
2023-01-31T16:44:15.225Z,8.30
2023-01-31T16:46:46.125Z,8.30
2023-01-31T16:49:23.346Z,8.30
2023-01-31T16:51:52.180Z,8.40
2023-01-31T16:54:26.839Z,8.40
2023-01-31T16:57:09.366Z,8.40
2023-01-31T16:59:52.879Z,8.40
2023-01-31T17:02:26.788Z,8.40
2023-01-31T17:04:57.170Z,8.40
2023-01-31T17:07:27.994Z,8.40
2023-01-31T17:09:59.794Z,8.40
2023-01-31T17:12:29.575Z,8.50
2023-01-31T17:15:00.805Z,8.50
2023-01-31T17:17:34.066Z,8.50
2023-01-31T17:20:03.265Z,8.50
2023-01-31T17:22:31.466Z,8.50
2023-01-31T17:25:00.803Z,8.50
2023-01-31T17:27:28.716Z,8.50
2023-01-31T17:29:56.695Z,8.40
2023-01-31T17:32:24.734Z,8.40
2023-01-31T17:34:52.679Z,8.40
2023-01-31T17:37:30.284Z,8.40
2023-01-31T17:40:00.924Z,8.40
2023-01-31T17:42:28.954Z,8.40
2023-01-31T17:44:57.046Z,8.50
2023-01-31T17:47:26.895Z,8.50
2023-01-31T17:49:55.219Z,8.40
2023-01-31T17:52:23.172Z,8.50
2023-01-31T17:54:51.409Z,8.50
2023-01-31T17:57:20.816Z,8.50
2023-01-31T17:59:48.783Z,8.50
2023-01-31T18:02:16.729Z,8.60
2023-01-31T18:04:44.725Z,8.60
2023-01-31T18:07:16.470Z,8.60
2023-01-31T18:09:45.582Z,8.60
2023-01-31T18:12:13.718Z,8.60
2023-01-31T18:14:43.105Z,8.60
2023-01-31T18:17:11.218Z,8.60
2023-01-31T18:19:39.317Z,8.60
2023-01-31T18:22:09.317Z,8.60
2023-01-31T18:24:37.263Z,8.60
2023-01-31T18:27:05.548Z,8.60
2023-01-31T18:29:33.760Z,8.70
2023-01-31T18:32:06.230Z,8.60
2023-01-31T18:34:34.654Z,8.70
2023-01-31T18:37:05.557Z,8.70
2023-01-31T18:39:33.732Z,8.70
2023-01-31T18:42:02.541Z,8.60
2023-01-31T18:44:31.211Z,8.70
2023-01-31T18:46:59.261Z,8.70
2023-01-31T18:49:28.568Z,8.70
2023-01-31T18:51:56.543Z,8.70
2023-01-31T18:54:25.200Z,8.70
2023-01-31T18:56:53.225Z,8.70
2023-01-31T18:59:21.201Z,8.80
2023-01-31T19:01:49.294Z,8.80
2023-01-31T19:04:17.356Z,8.80
2023-01-31T19:06:51.112Z,8.90
2023-01-31T19:09:19.572Z,8.90
2023-01-31T19:11:47.813Z,8.90
2023-01-31T19:14:16.361Z,8.90
2023-01-31T19:16:45.370Z,8.90
2023-01-31T19:19:13.903Z,8.90
2023-01-31T19:21:42.590Z,8.80
2023-01-31T19:24:15.347Z,8.50
2023-01-31T19:26:44.183Z,8.00
2023-01-31T19:29:15.740Z,7.40
2023-01-31T19:31:44.056Z,7.10
2023-01-31T19:34:12.102Z,6.80
2023-01-31T19:36:44.531Z,6.60
2023-01-31T19:39:14.239Z,6.50
2023-01-31T19:41:43.074Z,6.40
2023-01-31T19:44:11.672Z,6.40
2023-01-31T19:46:39.590Z,6.40
2023-01-31T19:49:07.520Z,6.30
2023-01-31T19:51:35.512Z,6.20
2023-01-31T19:54:03.800Z,6.20
2023-01-31T19:56:33.621Z,6.10
2023-01-31T19:59:02.666Z,6.00
2023-01-31T20:01:30.683Z,6.00
2023-01-31T20:03:58.959Z,6.00
2023-01-31T20:06:28.734Z,6.00
2023-01-31T20:08:58.974Z,6.00
2023-01-31T20:11:28.713Z,6.10
2023-01-31T20:13:58.789Z,6.10
2023-01-31T20:16:27.175Z,6.10
2023-01-31T20:18:56.151Z,6.10
2023-01-31T20:21:24.379Z,6.10
2023-01-31T20:23:52.647Z,6.20
2023-01-31T20:26:22.714Z,6.20
2023-01-31T20:28:50.806Z,6.20
2023-01-31T20:31:20.402Z,6.20
2023-01-31T20:33:48.454Z,6.10
2023-01-31T20:36:16.384Z,6.10
2023-01-31T20:38:44.529Z,6.10
2023-01-31T20:41:14.923Z,6.10
2023-01-31T20:43:43.144Z,6.10
2023-01-31T20:46:13.061Z,6.00
2023-01-31T20:48:43.173Z,6.10
2023-01-31T20:51:11.236Z,6.10
2023-01-31T20:53:39.407Z,6.10
2023-01-31T20:56:09.745Z,6.10
2023-01-31T20:58:40.086Z,6.10
2023-01-31T21:01:09.952Z,6.10
2023-01-31T21:03:38.502Z,6.00
2023-01-31T21:06:09.004Z,6.00
2023-01-31T21:08:37.129Z,6.10
2023-01-31T21:11:08.146Z,6.10
2023-01-31T21:13:36.757Z,6.20
2023-01-31T21:16:07.068Z,6.20
2023-01-31T21:18:37.046Z,6.30
2023-01-31T21:21:08.767Z,6.30
2023-01-31T21:23:38.123Z,6.40
2023-01-31T21:26:07.845Z,6.40
2023-01-31T21:28:36.730Z,6.50
2023-01-31T21:31:07.575Z,6.50
2023-01-31T21:33:35.724Z,6.60
2023-01-31T21:36:10.732Z,6.60
2023-01-31T21:38:39.301Z,6.60
2023-01-31T21:41:25.313Z,6.60
2023-01-31T21:43:53.456Z,6.60
2023-01-31T21:46:21.646Z,6.60
2023-01-31T21:48:49.962Z,6.40
2023-01-31T21:51:22.148Z,6.20
2023-01-31T21:53:50.076Z,6.10
2023-01-31T21:56:19.921Z,6.00
2023-01-31T21:58:48.238Z,5.90
2023-01-31T22:01:18.825Z,5.90
2023-01-31T22:03:49.361Z,5.80
2023-01-31T22:06:20.640Z,5.70
2023-01-31T22:08:52.690Z,5.70
2023-01-31T22:11:21.303Z,5.70
2023-01-31T22:13:52.692Z,5.60
2023-01-31T22:16:23.160Z,5.60
2023-01-31T22:18:51.117Z,5.60
2023-01-31T22:21:22.180Z,5.60
2023-01-31T22:23:51.915Z,5.60
2023-01-31T22:26:22.345Z,5.60
2023-01-31T22:28:50.898Z,5.60
2023-01-31T22:31:20.829Z,5.60
2023-01-31T22:33:49.238Z,5.60
2023-01-31T22:36:18.191Z,5.60
2023-01-31T22:38:47.711Z,5.60
2023-01-31T22:41:19.861Z,5.60
2023-01-31T22:43:49.750Z,5.70
2023-01-31T22:46:19.745Z,5.70
2023-01-31T22:48:49.290Z,5.70
2023-01-31T22:51:19.153Z,5.80
2023-01-31T22:53:49.131Z,5.80
2023-01-31T22:56:18.295Z,5.80
2023-01-31T22:58:46.863Z,5.80
2023-01-31T23:01:17.553Z,5.80
2023-01-31T23:03:46.111Z,5.80
2023-01-31T23:06:15.009Z,5.70
2023-01-31T23:08:43.394Z,5.70
2023-01-31T23:11:14.272Z,5.70
2023-01-31T23:13:43.016Z,5.70
2023-01-31T23:16:15.849Z,5.80
2023-01-31T23:18:43.793Z,5.80
2023-01-31T23:21:13.630Z,5.90
2023-01-31T23:23:42.695Z,6.00
2023-01-31T23:26:12.519Z,6.10
2023-01-31T23:28:41.078Z,6.10
2023-01-31T23:31:09.133Z,6.10
2023-01-31T23:33:37.205Z,6.20
2023-01-31T23:36:05.816Z,6.20
2023-01-31T23:38:33.763Z,6.30
2023-01-31T23:41:01.773Z,6.30
2023-01-31T23:43:31.068Z,6.40
2023-01-31T23:45:59.072Z,6.40
2023-01-31T23:48:27.067Z,6.40
2023-01-31T23:50:54.961Z,6.40
2023-01-31T23:53:22.927Z,6.40
2023-01-31T23:55:50.818Z,6.40
2023-01-31T23:58:18.769Z,6.40
